• Join FlightAware (Why Join?)
  • Login
  • US Flag 
05:28PM EDT


 

Airport Tracker/Info


-or-


 

Live Flight TrackerFlight Track Log ✈ EJA929 ✈ 28-Sep-2013 ✈ KMKE - KMDW

Flight Track Log - Related Links

Times and Time Zones

All times are in EDT time to prevent confusion due to time zone crossing. See the EJA929 flight status page for this flight to view local times or setup timezone preferences in your user account.

Time Position Orientation Groundspeed Altitude Reporting Facility
EDT Latitude Longitude Course Direction KTS MPH feet Rate Location/Type
12:30PM 42.9333 -87.9000 160° South 171 197 1,400  Level KMKE
12:30PM 42.9000 -87.8833 160° South 201 231 3,500 1,500 Climbing KMKE
12:31PM 42.8500 -87.8167 136° Southeast 258 297 4,000 240 Climbing KMKE
12:32PM 42.8000 -87.7667 144° Southeast 263 303 4,000  Level KMKE
12:33PM 42.7333 -87.7000 144° Southeast 251 289 4,000  Level KMKE
12:35PM 42.6611 -87.6469 152° Southeast 251 289 4,000  Level Chicago Center
12:36PM 42.5939 -87.6208 164° South 252 290 4,000  Level Chicago Center
12:37PM 42.5297 -87.5931 162° South 245 282 4,000  Level Chicago Center
12:38PM 42.4519 -87.5614 163° South 244 281 4,000  Level Chicago Center
12:39PM 42.3867 -87.5361 164° South 245 282 4,000  Level Chicago Center
12:40PM 42.3164 -87.5181 169° South 255 293 4,000  Level Chicago Center
12:41PM 42.2508 -87.5131 177° South 257 296 4,000  Level Chicago Center
12:42PM 42.1692 -87.4992 173° South 251 289 4,000  Level Chicago Center
12:43PM 42.1022 -87.4894 174° South 247 284 4,000  Level Chicago Center
12:44PM 42.0322 -87.4789 174° South 249 287 4,000  Level Chicago Center
12:45PM 41.9622 -87.4675 173° South 252 290 4,000 -300 Level Chicago Center
12:46PM 41.9078 -87.4594 174° South 223 257 3,400 -780 Descending Chicago Center
12:47PM 41.8508 -87.4861 199° South 196 226 2,500 -480 Descending Chicago Center
12:48PM 41.8356 -87.5483 252° West 181 208 2,500  Level Chicago Center
12:49PM 41.8361 -87.6144 271° West 177 204 2,500 -180 Level Chicago Center
12:50PM 41.8300 -87.6769 263° West 179 206 2,200 -660 Descending Chicago Center
12:51PM 41.8106 -87.7222 240° Southwest 156 180 1,200 -540 Descending Chicago Center
12:52PM 41.7897 -87.7606 234° Southwest 151 174 1,100 -120 Descending Chicago Center
12:54PM 41.7833 -87.7500 166° South  Level FlightAware Approximate